sensor_id;sensor_type;location;lat;lon;timestamp;pressure;altitude;pressure_sealevel;temperature;humidity
5755;BME280;2902;42.130;24.732;2023-03-16T00:01:47;98388.97;;;10.77;62.60
5755;BME280;2902;42.130;24.732;2023-03-16T00:04:14;98388.25;;;10.70;63.22
5755;BME280;2902;42.130;24.732;2023-03-16T00:06:41;98389.88;;;10.71;62.78
5755;BME280;2902;42.130;24.732;2023-03-16T00:09:07;98394.81;;;10.67;63.45
5755;BME280;2902;42.130;24.732;2023-03-16T00:11:34;98387.91;;;10.66;63.98
5755;BME280;2902;42.130;24.732;2023-03-16T00:14:01;98394.25;;;10.65;64.73
5755;BME280;2902;42.130;24.732;2023-03-16T00:16:28;98395.94;;;10.60;65.14
5755;BME280;2902;42.130;24.732;2023-03-16T00:18:56;98397.22;;;10.57;65.70
5755;BME280;2902;42.130;24.732;2023-03-16T00:21:23;98396.84;;;10.54;66.35
5755;BME280;2902;42.130;24.732;2023-03-16T00:23:50;98398.03;;;10.58;66.88
5755;BME280;2902;42.130;24.732;2023-03-16T00:26:17;98395.06;;;10.66;66.96
5755;BME280;2902;42.130;24.732;2023-03-16T00:28:44;98393.44;;;10.65;67.09
5755;BME280;2902;42.130;24.732;2023-03-16T00:31:11;98387.16;;;10.59;67.85
5755;BME280;2902;42.130;24.732;2023-03-16T00:33:39;98387.41;;;10.58;68.37
5755;BME280;2902;42.130;24.732;2023-03-16T00:36:08;98391.81;;;10.64;68.55
5755;BME280;2902;42.130;24.732;2023-03-16T00:38:37;98392.72;;;10.58;68.87
5755;BME280;2902;42.130;24.732;2023-03-16T00:41:06;98395.50;;;10.63;68.72
5755;BME280;2902;42.130;24.732;2023-03-16T00:43:35;98400.06;;;10.56;69.51
5755;BME280;2902;42.130;24.732;2023-03-16T00:46:05;98394.34;;;10.59;69.19
5755;BME280;2902;42.130;24.732;2023-03-16T00:48:32;98401.59;;;10.63;69.52
5755;BME280;2902;42.130;24.732;2023-03-16T00:51:00;98401.16;;;10.66;69.39
5755;BME280;2902;42.130;24.732;2023-03-16T00:53:28;98414.66;;;10.65;69.45
5755;BME280;2902;42.130;24.732;2023-03-16T00:55:55;98406.69;;;10.65;70.24
5755;BME280;2902;42.130;24.732;2023-03-16T00:58:22;98414.53;;;10.60;70.26
5755;BME280;2902;42.130;24.732;2023-03-16T01:00:49;98409.16;;;10.48;70.98
5755;BME280;2902;42.130;24.732;2023-03-16T01:03:18;98417.63;;;10.57;70.91
5755;BME280;2902;42.130;24.732;2023-03-16T01:05:44;98419.47;;;10.56;71.79
5755;BME280;2902;42.130;24.732;2023-03-16T01:08:11;98421.91;;;10.58;71.75
5755;BME280;2902;42.130;24.732;2023-03-16T01:10:39;98422.06;;;10.63;71.97
5755;BME280;2902;42.130;24.732;2023-03-16T01:13:06;98424.50;;;10.64;71.84
5755;BME280;2902;42.130;24.732;2023-03-16T01:15:32;98417.63;;;10.57;72.11
5755;BME280;2902;42.130;24.732;2023-03-16T01:18:00;98426.06;;;10.54;72.58
5755;BME280;2902;42.130;24.732;2023-03-16T01:20:27;98425.59;;;10.57;72.19
5755;BME280;2902;42.130;24.732;2023-03-16T01:22:54;98428.63;;;10.60;72.79
5755;BME280;2902;42.130;24.732;2023-03-16T01:25:20;98441.69;;;10.62;72.84
5755;BME280;2902;42.130;24.732;2023-03-16T01:27:49;98437.69;;;10.53;73.83
5755;BME280;2902;42.130;24.732;2023-03-16T01:30:17;98447.94;;;10.49;74.04
5755;BME280;2902;42.130;24.732;2023-03-16T01:32:45;98438.88;;;10.57;73.74
5755;BME280;2902;42.130;24.732;2023-03-16T01:35:12;98453.94;;;10.63;74.32
5755;BME280;2902;42.130;24.732;2023-03-16T01:37:38;98448.91;;;10.73;73.61
5755;BME280;2902;42.130;24.732;2023-03-16T01:40:07;98443.88;;;10.65;73.28
5755;BME280;2902;42.130;24.732;2023-03-16T01:42:43;98452.91;;;10.46;73.74
5755;BME280;2902;42.130;24.732;2023-03-16T01:48:12;98445.09;;;10.08;73.01
5755;BME280;2902;42.130;24.732;2023-03-16T01:50:40;98453.88;;;10.09;72.25
5755;BME280;2902;42.130;24.732;2023-03-16T01:53:07;98456.38;;;9.97;71.99
5755;BME280;2902;42.130;24.732;2023-03-16T01:55:35;98462.00;;;9.83;71.80
5755;BME280;2902;42.130;24.732;2023-03-16T01:58:02;98462.72;;;9.72;71.79
5755;BME280;2902;42.130;24.732;2023-03-16T02:00:29;98466.63;;;9.63;72.52
5755;BME280;2902;42.130;24.732;2023-03-16T02:02:58;98463.41;;;9.61;71.99
5755;BME280;2902;42.130;24.732;2023-03-16T02:05:32;98475.09;;;9.47;73.26
5755;BME280;2902;42.130;24.732;2023-03-16T02:08:01;98468.44;;;9.38;72.83
5755;BME280;2902;42.130;24.732;2023-03-16T02:10:28;98480.25;;;9.42;72.82
5755;BME280;2902;42.130;24.732;2023-03-16T02:12:56;98487.16;;;9.43;73.31
5755;BME280;2902;42.130;24.732;2023-03-16T02:15:24;98481.84;;;9.43;73.24
5755;BME280;2902;42.130;24.732;2023-03-16T02:17:51;98486.75;;;9.46;73.14
5755;BME280;2902;42.130;24.732;2023-03-16T02:20:25;98494.31;;;9.42;73.51
5755;BME280;2902;42.130;24.732;2023-03-16T02:22:57;98487.78;;;9.45;74.02
5755;BME280;2902;42.130;24.732;2023-03-16T02:25:27;98494.28;;;9.49;74.46
5755;BME280;2902;42.130;24.732;2023-03-16T02:27:59;98497.75;;;9.43;73.94
5755;BME280;2902;42.130;24.732;2023-03-16T02:30:31;98492.25;;;9.44;74.80
5755;BME280;2902;42.130;24.732;2023-03-16T02:32:58;98495.97;;;9.37;74.94
5755;BME280;2902;42.130;24.732;2023-03-16T02:35:25;98497.38;;;9.39;75.40
5755;BME280;2902;42.130;24.732;2023-03-16T02:37:52;98502.97;;;9.25;75.17
5755;BME280;2902;42.130;24.732;2023-03-16T02:40:21;98502.78;;;9.20;75.66
5755;BME280;2902;42.130;24.732;2023-03-16T02:42:52;98507.44;;;9.31;75.07
5755;BME280;2902;42.130;24.732;2023-03-16T02:45:22;98501.97;;;9.19;74.50
5755;BME280;2902;42.130;24.732;2023-03-16T02:47:52;98504.06;;;9.11;74.86
5755;BME280;2902;42.130;24.732;2023-03-16T02:50:20;98510.56;;;9.15;74.68
5755;BME280;2902;42.130;24.732;2023-03-16T02:52:47;98512.53;;;9.26;73.60
5755;BME280;2902;42.130;24.732;2023-03-16T02:55:13;98514.41;;;9.19;74.31
5755;BME280;2902;42.130;24.732;2023-03-16T02:57:40;98526.03;;;9.18;73.94
5755;BME280;2902;42.130;24.732;2023-03-16T03:00:08;98532.97;;;9.19;73.60
5755;BME280;2902;42.130;24.732;2023-03-16T03:02:38;98531.31;;;9.18;72.97
5755;BME280;2902;42.130;24.732;2023-03-16T03:05:07;98541.91;;;9.18;72.31
5755;BME280;2902;42.130;24.732;2023-03-16T03:07:34;98542.72;;;9.25;72.07
5755;BME280;2902;42.130;24.732;2023-03-16T03:10:01;98543.38;;;9.07;72.71
5755;BME280;2902;42.130;24.732;2023-03-16T03:12:30;98554.22;;;8.99;72.85
5755;BME280;2902;42.130;24.732;2023-03-16T03:14:57;98555.06;;;8.87;72.78
5755;BME280;2902;42.130;24.732;2023-03-16T03:17:24;98563.22;;;8.92;72.26
5755;BME280;2902;42.130;24.732;2023-03-16T03:19:54;98564.84;;;8.86;72.07
5755;BME280;2902;42.130;24.732;2023-03-16T03:22:23;98565.66;;;8.87;72.24
5755;BME280;2902;42.130;24.732;2023-03-16T03:24:50;98561.16;;;8.87;72.56
5755;BME280;2902;42.130;24.732;2023-03-16T03:27:17;98571.16;;;8.85;72.15
5755;BME280;2902;42.130;24.732;2023-03-16T03:29:44;98572.00;;;8.73;72.43
5755;BME280;2902;42.130;24.732;2023-03-16T03:32:12;98581.78;;;8.72;73.00
5755;BME280;2902;42.130;24.732;2023-03-16T03:34:39;98572.84;;;8.67;72.98
5755;BME280;2902;42.130;24.732;2023-03-16T03:37:06;98582.41;;;8.55;74.01
5755;BME280;2902;42.130;24.732;2023-03-16T03:39:34;98580.78;;;8.67;73.21
5755;BME280;2902;42.130;24.732;2023-03-16T03:42:01;98581.19;;;8.64;73.15
5755;BME280;2902;42.130;24.732;2023-03-16T03:44:28;98575.06;;;8.57;73.39
5755;BME280;2902;42.130;24.732;2023-03-16T03:46:58;98585.66;;;8.57;73.26
5755;BME280;2902;42.130;24.732;2023-03-16T03:49:25;98586.06;;;8.73;73.08
5755;BME280;2902;42.130;24.732;2023-03-16T03:51:52;98595.84;;;8.47;73.75
5755;BME280;2902;42.130;24.732;2023-03-16T03:54:19;98596.88;;;8.46;73.60
5755;BME280;2902;42.130;24.732;2023-03-16T03:56:48;98595.47;;;8.37;73.63
5755;BME280;2902;42.130;24.732;2023-03-16T03:59:15;98591.38;;;8.28;74.37
5755;BME280;2902;42.130;24.732;2023-03-16T04:01:41;98593.81;;;8.29;73.83
5755;BME280;2902;42.130;24.732;2023-03-16T04:04:08;98597.50;;;8.35;74.05
5755;BME280;2902;42.130;24.732;2023-03-16T04:06:35;98599.72;;;8.31;73.90
5755;BME280;2902;42.130;24.732;2023-03-16T04:09:02;98601.75;;;8.36;73.80
5755;BME280;2902;42.130;24.732;2023-03-16T04:11:29;98601.16;;;8.21;73.76
5755;BME280;2902;42.130;24.732;2023-03-16T04:13:57;98598.25;;;8.16;74.10
5755;BME280;2902;42.130;24.732;2023-03-16T04:16:24;98608.81;;;8.03;73.70
5755;BME280;2902;42.130;24.732;2023-03-16T04:18:51;98600.69;;;7.98;74.40
5755;BME280;2902;42.130;24.732;2023-03-16T04:21:19;98603.72;;;7.95;73.69
5755;BME280;2902;42.130;24.732;2023-03-16T04:23:46;98612.69;;;8.00;74.38
5755;BME280;2902;42.130;24.732;2023-03-16T04:26:14;98609.84;;;8.02;73.94
5755;BME280;2902;42.130;24.732;2023-03-16T04:28:42;98625.31;;;7.98;74.13
5755;BME280;2902;42.130;24.732;2023-03-16T04:31:10;98634.47;;;8.02;74.02
5755;BME280;2902;42.130;24.732;2023-03-16T04:33:39;98632.59;;;7.90;73.99
5755;BME280;2902;42.130;24.732;2023-03-16T04:36:07;98632.59;;;7.90;73.71
5755;BME280;2902;42.130;24.732;2023-03-16T04:38:34;98642.75;;;7.86;74.06
5755;BME280;2902;42.130;24.732;2023-03-16T04:41:03;98638.50;;;7.85;73.57
5755;BME280;2902;42.130;24.732;2023-03-16T04:43:30;98640.13;;;7.86;74.08
5755;BME280;2902;42.130;24.732;2023-03-16T04:45:58;98641.72;;;7.81;73.54
5755;BME280;2902;42.130;24.732;2023-03-16T04:48:27;98648.84;;;7.87;73.20
5755;BME280;2902;42.130;24.732;2023-03-16T04:50:53;98664.66;;;7.74;72.72
5755;BME280;2902;42.130;24.732;2023-03-16T04:53:20;98651.09;;;7.90;72.22
5755;BME280;2902;42.130;24.732;2023-03-16T04:55:47;98654.13;;;7.87;72.30
5755;BME280;2902;42.130;24.732;2023-03-16T04:58:14;98666.34;;;7.88;72.26
5755;BME280;2902;42.130;24.732;2023-03-16T05:00:41;98673.06;;;7.90;72.25
5755;BME280;2902;42.130;24.732;2023-03-16T05:03:08;98671.00;;;7.86;71.85
5755;BME280;2902;42.130;24.732;2023-03-16T05:05:37;98677.09;;;7.73;72.17
5755;BME280;2902;42.130;24.732;2023-03-16T05:08:04;98690.53;;;7.78;71.78
5755;BME280;2902;42.130;24.732;2023-03-16T05:10:32;98689.28;;;7.74;71.63
5755;BME280;2902;42.130;24.732;2023-03-16T05:12:59;98696.22;;;7.82;70.48
5755;BME280;2902;42.130;24.732;2023-03-16T05:15:26;98696.16;;;7.69;70.84
5755;BME280;2902;42.130;24.732;2023-03-16T05:17:53;98695.78;;;7.72;71.37
5755;BME280;2902;42.130;24.732;2023-03-16T05:20:21;98709.66;;;7.87;70.80
5755;BME280;2902;42.130;24.732;2023-03-16T05:22:50;98716.19;;;7.91;70.85
5755;BME280;2902;42.130;24.732;2023-03-16T05:25:18;98718.63;;;7.92;70.04
5755;BME280;2902;42.130;24.732;2023-03-16T05:27:46;98717.81;;;7.92;70.16
5755;BME280;2902;42.130;24.732;2023-03-16T05:30:14;98727.38;;;7.93;70.45
5755;BME280;2902;42.130;24.732;2023-03-16T05:32:42;98733.22;;;7.82;70.05
5755;BME280;2902;42.130;24.732;2023-03-16T05:35:09;98736.03;;;7.74;71.13
5755;BME280;2902;42.130;24.732;2023-03-16T05:37:38;98718.34;;;7.74;70.77
5755;BME280;2902;42.130;24.732;2023-03-16T05:40:07;98741.00;;;7.90;70.63
5755;BME280;2902;42.130;24.732;2023-03-16T05:42:42;98739.78;;;7.92;70.95
5755;BME280;2902;42.130;24.732;2023-03-16T05:45:09;98745.06;;;7.92;70.48
5755;BME280;2902;42.130;24.732;2023-03-16T05:47:36;98748.38;;;8.01;70.47
5755;BME280;2902;42.130;24.732;2023-03-16T05:50:03;98753.22;;;7.97;69.34
5755;BME280;2902;42.130;24.732;2023-03-16T05:52:33;98754.03;;;7.98;70.08
5755;BME280;2902;42.130;24.732;2023-03-16T05:55:01;98757.72;;;7.97;69.48
5755;BME280;2902;42.130;24.732;2023-03-16T05:57:29;98754.00;;;7.85;69.64
5755;BME280;2902;42.130;24.732;2023-03-16T05:59:56;98760.91;;;7.86;69.64
5755;BME280;2902;42.130;24.732;2023-03-16T06:02:23;98772.28;;;7.80;69.53
5755;BME280;2902;42.130;24.732;2023-03-16T06:04:51;98772.50;;;7.85;68.95
5755;BME280;2902;42.130;24.732;2023-03-16T06:07:17;98773.09;;;7.87;69.07
5755;BME280;2902;42.130;24.732;2023-03-16T06:09:44;98785.34;;;7.88;68.64
5755;BME280;2902;42.130;24.732;2023-03-16T06:12:11;98779.44;;;7.92;68.13
5755;BME280;2902;42.130;24.732;2023-03-16T06:14:39;98793.25;;;7.88;68.10
5755;BME280;2902;42.130;24.732;2023-03-16T06:17:06;98798.34;;;7.89;67.78
5755;BME280;2902;42.130;24.732;2023-03-16T06:19:33;98783.84;;;7.79;68.14
5755;BME280;2902;42.130;24.732;2023-03-16T06:22:00;98792.25;;;7.89;67.83
5755;BME280;2902;42.130;24.732;2023-03-16T06:24:26;98789.13;;;7.79;67.74
5755;BME280;2902;42.130;24.732;2023-03-16T06:26:53;98800.75;;;7.84;67.65
5755;BME280;2902;42.130;24.732;2023-03-16T06:29:20;98793.66;;;7.85;67.51
5755;BME280;2902;42.130;24.732;2023-03-16T06:31:48;98800.53;;;7.79;67.41
5755;BME280;2902;42.130;24.732;2023-03-16T06:34:15;98810.13;;;7.87;67.18
5755;BME280;2902;42.130;24.732;2023-03-16T06:36:42;98811.59;;;7.96;67.26
5755;BME280;2902;42.130;24.732;2023-03-16T06:39:09;98813.00;;;7.92;67.17
5755;BME280;2902;42.130;24.732;2023-03-16T06:41:35;98819.94;;;7.93;66.54
5755;BME280;2902;42.130;24.732;2023-03-16T06:44:02;98826.41;;;7.90;66.60
5755;BME280;2902;42.130;24.732;2023-03-16T06:46:30;98822.56;;;7.93;66.43
5755;BME280;2902;42.130;24.732;2023-03-16T06:48:59;98836.69;;;8.06;66.66
5755;BME280;2902;42.130;24.732;2023-03-16T06:51:26;98835.41;;;7.96;66.94
5755;BME280;2902;42.130;24.732;2023-03-16T06:53:52;98843.19;;;8.04;66.22
5755;BME280;2902;42.130;24.732;2023-03-16T06:56:19;98846.44;;;8.06;65.45
5755;BME280;2902;42.130;24.732;2023-03-16T06:58:46;98836.03;;;8.04;65.78
5755;BME280;2902;42.130;24.732;2023-03-16T07:01:12;98850.09;;;8.05;65.54
5755;BME280;2902;42.130;24.732;2023-03-16T07:03:39;98856.59;;;8.02;65.92
5755;BME280;2902;42.130;24.732;2023-03-16T07:06:07;98865.78;;;8.06;66.26
5755;BME280;2902;42.130;24.732;2023-03-16T07:08:34;98860.66;;;8.05;66.41
5755;BME280;2902;42.130;24.732;2023-03-16T07:11:01;98868.84;;;8.10;65.96
5755;BME280;2902;42.130;24.732;2023-03-16T07:13:28;98866.78;;;8.12;66.10
5755;BME280;2902;42.130;24.732;2023-03-16T07:15:55;98870.91;;;8.14;65.95
5755;BME280;2902;42.130;24.732;2023-03-16T07:18:22;98868.41;;;8.06;65.28
5755;BME280;2902;42.130;24.732;2023-03-16T07:20:51;98874.16;;;8.16;65.15
5755;BME280;2902;42.130;24.732;2023-03-16T07:23:20;98880.59;;;8.01;64.88
5755;BME280;2902;42.130;24.732;2023-03-16T07:25:48;98869.00;;;8.02;65.71
5755;BME280;2902;42.130;24.732;2023-03-16T07:28:16;98881.88;;;8.11;65.40
5755;BME280;2902;42.130;24.732;2023-03-16T07:30:44;98881.13;;;8.24;64.59
5755;BME280;2902;42.130;24.732;2023-03-16T07:33:11;98891.25;;;8.20;63.97
5755;BME280;2902;42.130;24.732;2023-03-16T07:35:37;98888.28;;;8.23;64.44
5755;BME280;2902;42.130;24.732;2023-03-16T07:38:04;98887.28;;;8.31;65.77
5755;BME280;2902;42.130;24.732;2023-03-16T07:40:32;98892.22;;;8.40;65.68
5755;BME280;2902;42.130;24.732;2023-03-16T07:42:59;98892.59;;;8.37;65.11
5755;BME280;2902;42.130;24.732;2023-03-16T07:45:26;98888.13;;;8.38;64.16
5755;BME280;2902;42.130;24.732;2023-03-16T07:47:52;98892.00;;;8.35;63.88
5755;BME280;2902;42.130;24.732;2023-03-16T07:50:19;98884.47;;;8.39;64.48
5755;BME280;2902;42.130;24.732;2023-03-16T07:52:46;98886.72;;;8.42;64.35
5755;BME280;2902;42.130;24.732;2023-03-16T07:55:13;98882.91;;;8.51;64.35
5755;BME280;2902;42.130;24.732;2023-03-16T07:57:41;98886.56;;;8.50;64.32
5755;BME280;2902;42.130;24.732;2023-03-16T08:00:13;98890.22;;;8.49;64.15
5755;BME280;2902;42.130;24.732;2023-03-16T08:02:40;98892.66;;;8.50;64.17
5755;BME280;2902;42.130;24.732;2023-03-16T08:05:07;98891.03;;;8.49;64.59
5755;BME280;2902;42.130;24.732;2023-03-16T08:07:35;98890.28;;;8.62;63.97
5755;BME280;2902;42.130;24.732;2023-03-16T08:10:03;98888.66;;;8.67;63.35
5755;BME280;2902;42.130;24.732;2023-03-16T08:12:30;98903.16;;;8.78;63.51
5755;BME280;2902;42.130;24.732;2023-03-16T08:14:59;98894.41;;;8.84;63.19
5755;BME280;2902;42.130;24.732;2023-03-16T08:17:26;98892.44;;;8.99;62.00
5755;BME280;2902;42.130;24.732;2023-03-16T08:19:52;98899.75;;;9.03;61.47
5755;BME280;2902;42.130;24.732;2023-03-16T08:22:19;98901.63;;;9.16;60.43
5755;BME280;2902;42.130;24.732;2023-03-16T08:24:46;98900.59;;;9.10;59.91
5755;BME280;2902;42.130;24.732;2023-03-16T08:27:14;98886.31;;;9.05;59.65
5755;BME280;2902;42.130;24.732;2023-03-16T08:29:43;98912.44;;;9.21;59.86
5755;BME280;2902;42.130;24.732;2023-03-16T08:32:12;98907.94;;;9.15;59.96
5755;BME280;2902;42.130;24.732;2023-03-16T08:34:39;98901.41;;;9.11;59.12
5755;BME280;2902;42.130;24.732;2023-03-16T08:37:06;98920.00;;;9.30;58.69
5755;BME280;2902;42.130;24.732;2023-03-16T08:39:34;98908.81;;;9.48;59.07
5755;BME280;2902;42.130;24.732;2023-03-16T08:42:01;98919.81;;;9.58;58.35
5755;BME280;2902;42.130;24.732;2023-03-16T08:44:27;98918.56;;;9.67;57.76
5755;BME280;2902;42.130;24.732;2023-03-16T08:46:54;98919.78;;;9.77;57.25
5755;BME280;2902;42.130;24.732;2023-03-16T08:49:22;98915.31;;;9.91;57.01
5755;BME280;2902;42.130;24.732;2023-03-16T08:51:49;98917.53;;;10.00;55.74
5755;BME280;2902;42.130;24.732;2023-03-16T08:54:16;98916.13;;;10.11;56.41
5755;BME280;2902;42.130;24.732;2023-03-16T08:56:42;98921.41;;;10.24;54.93
5755;BME280;2902;42.130;24.732;2023-03-16T08:59:09;98917.31;;;10.28;55.00
5755;BME280;2902;42.130;24.732;2023-03-16T09:01:36;98920.72;;;10.48;54.69
5755;BME280;2902;42.130;24.732;2023-03-16T09:04:03;98922.97;;;10.51;54.43
5755;BME280;2902;42.130;24.732;2023-03-16T09:06:31;98912.75;;;10.54;53.60
5755;BME280;2902;42.130;24.732;2023-03-16T09:08:58;98932.28;;;10.73;53.48
5755;BME280;2902;42.130;24.732;2023-03-16T09:11:25;98930.84;;;10.77;53.62
5755;BME280;2902;42.130;24.732;2023-03-16T09:13:55;98926.53;;;10.82;52.78
5755;BME280;2902;42.130;24.732;2023-03-16T09:16:22;98932.03;;;10.81;53.46
5755;BME280;2902;42.130;24.732;2023-03-16T09:18:50;98913.53;;;10.61;52.94
5755;BME280;2902;42.130;24.732;2023-03-16T09:21:17;98930.50;;;11.04;52.78
5755;BME280;2902;42.130;24.732;2023-03-16T09:23:45;98914.16;;;11.01;51.85
5755;BME280;2902;42.130;24.732;2023-03-16T09:26:13;98915.81;;;10.95;52.27
5755;BME280;2902;42.130;24.732;2023-03-16T09:28:40;98934.97;;;11.11;51.20
5755;BME280;2902;42.130;24.732;2023-03-16T09:31:08;98936.47;;;11.31;50.89
5755;BME280;2902;42.130;24.732;2023-03-16T09:33:35;98934.91;;;11.24;50.81
5755;BME280;2902;42.130;24.732;2023-03-16T09:36:03;98937.09;;;11.33;50.59
5755;BME280;2902;42.130;24.732;2023-03-16T09:38:30;98932.34;;;11.35;49.76
5755;BME280;2902;42.130;24.732;2023-03-16T09:41:01;98939.66;;;11.46;49.65
5755;BME280;2902;42.130;24.732;2023-03-16T09:43:53;98941.88;;;11.18;50.82
5755;BME280;2902;42.130;24.732;2023-03-16T09:46:26;98941.72;;;11.44;50.89
5755;BME280;2902;42.130;24.732;2023-03-16T09:48:55;98928.09;;;11.65;50.08
5755;BME280;2902;42.130;24.732;2023-03-16T09:51:31;98896.50;;;11.75;48.29
5755;BME280;2902;42.130;24.732;2023-03-16T09:54:01;98941.22;;;12.09;47.29
5755;BME280;2902;42.130;24.732;2023-03-16T09:56:34;98938.38;;;11.55;48.72
5755;BME280;2902;42.130;24.732;2023-03-16T09:59:09;98941.09;;;11.80;48.78
5755;BME280;2902;42.130;24.732;2023-03-16T10:01:41;98912.25;;;11.77;47.97
5755;BME280;2902;42.130;24.732;2023-03-16T10:04:15;98943.31;;;12.07;47.67
5755;BME280;2902;42.130;24.732;2023-03-16T10:06:53;98935.31;;;12.07;47.23
5755;BME280;2902;42.130;24.732;2023-03-16T10:09:30;98949.47;;;12.01;47.38
5755;BME280;2902;42.130;24.732;2023-03-16T10:11:59;98925.59;;;11.95;46.73
5755;BME280;2902;42.130;24.732;2023-03-16T10:14:32;98940.16;;;12.17;47.13
5755;BME280;2902;42.130;24.732;2023-03-16T10:17:06;98949.38;;;12.14;47.05
5755;BME280;2902;42.130;24.732;2023-03-16T10:19:39;98904.22;;;12.01;46.63
5755;BME280;2902;42.130;24.732;2023-03-16T10:22:17;98917.72;;;12.24;46.60
5755;BME280;2902;42.130;24.732;2023-03-16T10:24:54;98953.88;;;12.56;46.03
5755;BME280;2902;42.130;24.732;2023-03-16T10:27:28;98948.31;;;12.76;45.30
5755;BME280;2902;42.130;24.732;2023-03-16T10:29:55;98944.81;;;12.57;45.34
5755;BME280;2902;42.130;24.732;2023-03-16T10:32:22;98941.41;;;12.50;45.40
5755;BME280;2902;42.130;24.732;2023-03-16T10:34:57;98926.88;;;12.53;45.40
5755;BME280;2902;42.130;24.732;2023-03-16T10:37:28;98934.16;;;12.57;45.23
5755;BME280;2902;42.130;24.732;2023-03-16T10:39:55;98919.69;;;12.35;45.03
5755;BME280;2902;42.130;24.732;2023-03-16T10:42:26;98943.50;;;12.30;45.89
5755;BME280;2902;42.130;24.732;2023-03-16T10:44:57;98948.81;;;12.30;45.94
5755;BME280;2902;42.130;24.732;2023-03-16T10:47:27;98932.63;;;11.89;46.60
5755;BME280;2902;42.130;24.732;2023-03-16T10:49:55;98932.22;;;12.10;46.40
5755;BME280;2902;42.130;24.732;2023-03-16T10:52:26;98907.94;;;12.00;45.91
5755;BME280;2902;42.130;24.732;2023-03-16T10:54:58;98911.66;;;12.17;45.60
5755;BME280;2902;42.130;24.732;2023-03-16T10:57:29;98947.34;;;12.52;45.44
5755;BME280;2902;42.130;24.732;2023-03-16T10:59:59;98941.50;;;12.80;44.40
5755;BME280;2902;42.130;24.732;2023-03-16T11:02:33;98938.16;;;12.66;44.70
5755;BME280;2902;42.130;24.732;2023-03-16T11:05:11;98952.16;;;12.62;45.04
5755;BME280;2902;42.130;24.732;2023-03-16T11:07:38;98936.03;;;12.75;44.33
5755;BME280;2902;42.130;24.732;2023-03-16T11:10:12;98898.50;;;12.40;44.60
5755;BME280;2902;42.130;24.732;2023-03-16T11:12:41;98935.50;;;12.48;45.22
5755;BME280;2902;42.130;24.732;2023-03-16T11:15:12;98937.34;;;12.48;45.09
5755;BME280;2902;42.130;24.732;2023-03-16T11:17:42;98922.91;;;12.37;45.05
5755;BME280;2902;42.130;24.732;2023-03-16T11:20:13;98932.66;;;12.25;45.50
5755;BME280;2902;42.130;24.732;2023-03-16T11:22:42;98912.28;;;11.95;46.03
5755;BME280;2902;42.130;24.732;2023-03-16T11:25:13;98913.88;;;12.20;46.22
5755;BME280;2902;42.130;24.732;2023-03-16T11:27:49;98929.28;;;12.18;45.89
5755;BME280;2902;42.130;24.732;2023-03-16T11:30:21;98931.66;;;12.26;46.50
5755;BME280;2902;42.130;24.732;2023-03-16T11:32:50;98939.47;;;12.21;46.45
5755;BME280;2902;42.130;24.732;2023-03-16T11:35:19;98919.06;;;12.33;46.15
5755;BME280;2902;42.130;24.732;2023-03-16T11:38:03;98929.84;;;12.02;46.68
5755;BME280;2902;42.130;24.732;2023-03-16T11:40:44;98918.63;;;12.18;46.32
5755;BME280;2902;42.130;24.732;2023-03-16T11:43:40;98893.75;;;12.06;46.28
5755;BME280;2902;42.130;24.732;2023-03-16T11:46:14;98909.88;;;12.11;46.04
5755;BME280;2902;42.130;24.732;2023-03-16T11:48:50;98928.75;;;12.28;46.76
5755;BME280;2902;42.130;24.732;2023-03-16T11:51:33;98936.53;;;12.29;46.26
5755;BME280;2902;42.130;24.732;2023-03-16T11:54:20;98929.59;;;12.64;45.75
5755;BME280;2902;42.130;24.732;2023-03-16T11:56:59;98915.53;;;12.57;45.15
5755;BME280;2902;42.130;24.732;2023-03-16T11:59:51;98925.06;;;12.65;44.49
5755;BME280;2902;42.130;24.732;2023-03-16T12:02:32;98924.63;;;12.68;44.15
5755;BME280;2902;42.130;24.732;2023-03-16T12:05:21;98940.81;;;12.66;44.70
5755;BME280;2902;42.130;24.732;2023-03-16T12:07:59;98946.44;;;12.58;45.06
5755;BME280;2902;42.130;24.732;2023-03-16T12:10:33;98943.66;;;12.53;44.67
5755;BME280;2902;42.130;24.732;2023-03-16T12:13:28;98947.63;;;12.62;44.40
5755;BME280;2902;42.130;24.732;2023-03-16T12:16:03;98948.16;;;12.71;44.41
5755;BME280;2902;42.130;24.732;2023-03-16T12:18:39;98943.13;;;12.63;44.48
5755;BME280;2902;42.130;24.732;2023-03-16T12:21:12;98955.81;;;12.67;44.14
5755;BME280;2902;42.130;24.732;2023-03-16T12:23:48;98963.00;;;12.42;45.04
5755;BME280;2902;42.130;24.732;2023-03-16T12:26:17;98960.13;;;12.44;45.00
5755;BME280;2902;42.130;24.732;2023-03-16T12:28:45;98959.56;;;12.17;45.48
5755;BME280;2902;42.130;24.732;2023-03-16T12:31:18;98963.94;;;11.87;46.45
5755;BME280;2902;42.130;24.732;2023-03-16T12:34:05;98959.53;;;11.75;46.88
5755;BME280;2902;42.130;24.732;2023-03-16T12:39:44;98960.66;;;11.61;47.01
5755;BME280;2902;42.130;24.732;2023-03-16T12:42:37;98956.03;;;11.43;47.82
5755;BME280;2902;42.130;24.732;2023-03-16T12:45:11;98963.63;;;11.40;48.07
5755;BME280;2902;42.130;24.732;2023-03-16T12:47:48;98961.84;;;11.27;48.69
5755;BME280;2902;42.130;24.732;2023-03-16T12:50:19;98967.47;;;11.50;47.79
5755;BME280;2902;42.130;24.732;2023-03-16T12:52:47;98960.84;;;11.59;47.62
5755;BME280;2902;42.130;24.732;2023-03-16T12:55:17;98966.59;;;11.56;47.77
5755;BME280;2902;42.130;24.732;2023-03-16T12:57:47;98980.75;;;11.50;48.07
5755;BME280;2902;42.130;24.732;2023-03-16T13:00:16;98976.88;;;11.46;48.32
5755;BME280;2902;42.130;24.732;2023-03-16T13:02:52;98974.41;;;11.51;48.58
5755;BME280;2902;42.130;24.732;2023-03-16T13:05:28;98976.75;;;11.72;48.08
5755;BME280;2902;42.130;24.732;2023-03-16T13:08:04;98965.44;;;11.46;48.29
5755;BME280;2902;42.130;24.732;2023-03-16T13:10:32;98983.41;;;11.50;48.07
5755;BME280;2902;42.130;24.732;2023-03-16T13:13:07;98983.91;;;11.34;48.68
5755;BME280;2902;42.130;24.732;2023-03-16T13:15:36;98986.66;;;11.21;48.66
5755;BME280;2902;42.130;24.732;2023-03-16T13:18:20;98991.97;;;11.21;49.02
5755;BME280;2902;42.130;24.732;2023-03-16T13:20:56;98989.66;;;11.31;49.14
5755;BME280;2902;42.130;24.732;2023-03-16T13:23:25;98990.47;;;11.32;48.47
5755;BME280;2902;42.130;24.732;2023-03-16T13:26:03;98994.56;;;11.34;48.87
5755;BME280;2902;42.130;24.732;2023-03-16T13:28:32;98976.59;;;11.23;48.85
5755;BME280;2902;42.130;24.732;2023-03-16T13:31:00;98992.06;;;11.39;49.16
5755;BME280;2902;42.130;24.732;2023-03-16T13:33:30;99008.09;;;11.26;49.68
5755;BME280;2902;42.130;24.732;2023-03-16T13:36:00;99003.91;;;11.43;48.83